Baudette, Minnesota
Current Conditions -  °F | °C
As of 10:53 PM on Sunday 21 Dec 2014 (Local Time) from KBDE Reporting Station
Overcast Overcast  
Wind Chill: 27°   Ceiling: 900
Heat Index: 33°   Visibility: 10mi
Dew Point: 30°   Wind: 7mph
Humidity: 89%   Direction: 150°SSE
Pressure: 29.63"   Gusts: NA
Location:  48.71°N, 94.6°W
Report Text: KBDE 220453Z AUTO 15006KT 10SM OVC009 01/M01 A2963 RMK AO2 SLP048 T00061011 TSNO
Loading
Personal Weather Stations






























Interactive Weather Map New forecast layout! Learn more

10-Day Weather Forecast

Advertisements
Track Severe Weather on mobile